BWA255 TTCP-TTPP
Flight info
| Callsign | BWA255 |
|---|---|
| Flight time | N/A |
| Altitude | 10000 |
| Route | NAPKO DCT LEXOR DCT TALUS |
| Aircraft | B738/M-SDE2E3FGHIRWXY/LB1 |
Departure
| Time | 2026-04-28 00:34 |
|---|---|
| Airport | A.N.R. Robinson International Airport (TTCP) |
Arrival
| Time | N/A |
|---|---|
| Airport | Piarco International Airport (TTPP) |
| Time | Latitude | Longitude | Altitude | Speed | Heading |
|---|---|---|---|---|---|
| 2026-04-28 00:15 | 11.15177 | -60.84037 | 8 ft | 0 kts | 4° |
| 2026-04-28 00:32 | 11.15185 | -60.84039 | 8 ft | 5 kts | 333° |
| 2026-04-28 00:32 | 11.15178 | -60.84068 | 8 ft | 5 kts | 224° |
| 2026-04-28 00:32 | 11.15152 | -60.84093 | 8 ft | 5 kts | 223° |
| 2026-04-28 00:32 | 11.15110 | -60.84130 | 8 ft | 10 kts | 220° |
| 2026-04-28 00:33 | 11.15060 | -60.84173 | 8 ft | 9 kts | 217° |
| 2026-04-28 00:33 | 11.15029 | -60.84126 | 8 ft | 22 kts | 95° |
| 2026-04-28 00:33 | 11.14991 | -60.83609 | 9 ft | 122 kts | 94° |
| 2026-04-28 00:33 | 11.14915 | -60.82496 | 328 ft | 180 kts | 94° |
| 2026-04-28 00:34 | 11.14727 | -60.81136 | 1284 ft | 208 kts | 100° |
| 2026-04-28 00:34 | 11.14076 | -60.79730 | 2088 ft | 229 kts | 126° |
| 2026-04-28 00:34 | 11.12753 | -60.78750 | 2871 ft | 247 kts | 153° |
| 2026-04-28 00:34 | 11.10982 | -60.78449 | 3664 ft | 271 kts | 179° |
| 2026-04-28 00:35 | 11.09122 | -60.78971 | 4667 ft | 287 kts | 203° |
| 2026-04-28 00:35 | 11.07528 | -60.80255 | 5677 ft | 299 kts | 226° |
| 2026-04-28 00:35 | 11.06403 | -60.82069 | 6693 ft | 308 kts | 243° |
| 2026-04-28 00:35 | 11.05461 | -60.84045 | 7699 ft | 313 kts | 241° |
| 2026-04-28 00:36 | 11.04416 | -60.86001 | 8702 ft | 316 kts | 240° |
| 2026-04-28 00:36 | 11.03346 | -60.87983 | 9559 ft | 326 kts | 240° |
| 2026-04-28 00:36 | 11.02237 | -60.90057 | 9916 ft | 350 kts | 240° |
| 2026-04-28 00:36 | 11.01017 | -60.92353 | 10052 ft | 379 kts | 240° |
| 2026-04-28 00:37 | 10.99751 | -60.94747 | 10048 ft | 396 kts | 240° |
| 2026-04-28 00:37 | 10.98437 | -60.97237 | 10040 ft | 402 kts | 240° |
| 2026-04-28 00:37 | 10.97108 | -60.99761 | 10033 ft | 406 kts | 241° |
| 2026-04-28 00:37 | 10.95775 | -61.02297 | 10028 ft | 406 kts | 240° |
| 2026-04-28 00:38 | 10.94447 | -61.04822 | 10024 ft | 406 kts | 241° |
| 2026-04-28 00:38 | 10.93115 | -61.07357 | 10022 ft | 406 kts | 241° |
| 2026-04-28 00:38 | 10.91789 | -61.09880 | 10019 ft | 401 kts | 240° |
| 2026-04-28 00:38 | 10.90488 | -61.12368 | 10017 ft | 397 kts | 241° |
| 2026-04-28 00:39 | 10.89194 | -61.14841 | 10015 ft | 394 kts | 241° |
| 2026-04-28 00:39 | 10.87907 | -61.17296 | 10014 ft | 394 kts | 240° |
| 2026-04-28 00:39 | 10.86614 | -61.19759 | 10012 ft | 394 kts | 240° |
| 2026-04-28 00:39 | 10.85322 | -61.22220 | 9813 ft | 394 kts | 240° |
| 2026-04-28 00:40 | 10.84039 | -61.24671 | 9439 ft | 392 kts | 241° |
| 2026-04-28 00:40 | 10.82757 | -61.27117 | 9063 ft | 391 kts | 240° |
| 2026-04-28 00:40 | 10.81481 | -61.29547 | 8688 ft | 389 kts | 240° |
| 2026-04-28 00:40 | 10.80210 | -61.31964 | 8312 ft | 385 kts | 240° |
| 2026-04-28 00:41 | 10.78970 | -61.34320 | 7941 ft | 378 kts | 240° |
| 2026-04-28 00:41 | 10.77745 | -61.36646 | 7564 ft | 369 kts | 240° |
| 2026-04-28 00:41 | 10.76549 | -61.38917 | 7188 ft | 360 kts | 240° |
| 2026-04-28 00:41 | 10.75377 | -61.41142 | 6812 ft | 353 kts | 240° |
| 2026-04-28 00:42 | 10.74230 | -61.43319 | 6513 ft | 344 kts | 240° |
| 2026-04-28 00:42 | 10.73115 | -61.45437 | 6261 ft | 335 kts | 240° |
| 2026-04-28 00:42 | 10.72029 | -61.47497 | 6010 ft | 326 kts | 240° |
| 2026-04-28 00:42 | 10.70966 | -61.49508 | 5758 ft | 318 kts | 239° |
| 2026-04-28 00:43 | 10.69691 | -61.51296 | 5494 ft | 308 kts | 222° |
| 2026-04-28 00:43 | 10.67950 | -61.52455 | 5242 ft | 294 kts | 199° |
| 2026-04-28 00:43 | 10.65994 | -61.52826 | 4937 ft | 282 kts | 175° |
| 2026-04-28 00:43 | 10.64076 | -61.52536 | 4577 ft | 277 kts | 165° |
| 2026-04-28 00:44 | 10.62815 | -61.52341 | 4328 ft | 277 kts | 169° |
| 2026-04-28 00:44 | 10.60952 | -61.51920 | 3939 ft | 271 kts | 154° |
| 2026-04-28 00:44 | 10.59439 | -61.50851 | 3562 ft | 262 kts | 130° |
| 2026-04-28 00:44 | 10.58580 | -61.49313 | 3179 ft | 242 kts | 104° |
| 2026-04-28 00:45 | 10.58510 | -61.47711 | 3052 ft | 215 kts | 84° |
| 2026-04-28 00:45 | 10.58761 | -61.46303 | 2980 ft | 191 kts | 78° |
| 2026-04-28 00:45 | 10.59073 | -61.45052 | 2756 ft | 177 kts | 77° |
| 2026-04-28 00:45 | 10.59330 | -61.43840 | 2332 ft | 174 kts | 84° |
| 2026-04-28 00:46 | 10.59389 | -61.42646 | 2057 ft | 160 kts | 87° |
| 2026-04-28 00:46 | 10.59434 | -61.41571 | 1780 ft | 151 kts | 88° |
| 2026-04-28 00:46 | 10.59470 | -61.40517 | 1474 ft | 144 kts | 88° |
| 2026-04-28 00:46 | 10.59491 | -61.39838 | 1217 ft | 146 kts | 89° |